sensor_id;sensor_type;location;lat;lon;timestamp;temperature;humidity
19256;DHT22;9762;52.490;13.410;2023-02-04T00:01:43;7.90;98.90
19256;DHT22;9762;52.490;13.410;2023-02-04T00:04:11;7.90;99.10
19256;DHT22;9762;52.490;13.410;2023-02-04T00:06:37;7.90;99.40
19256;DHT22;9762;52.490;13.410;2023-02-04T00:09:03;7.90;99.60
19256;DHT22;9762;52.490;13.410;2023-02-04T00:11:29;7.90;99.70
19256;DHT22;9762;52.490;13.410;2023-02-04T00:13:55;7.80;99.60
19256;DHT22;9762;52.490;13.410;2023-02-04T00:16:20;7.80;99.90
19256;DHT22;9762;52.490;13.410;2023-02-04T00:18:46;7.70;99.90
19256;DHT22;9762;52.490;13.410;2023-02-04T00:21:11;7.60;99.90
19256;DHT22;9762;52.490;13.410;2023-02-04T00:23:37;7.60;99.90
19256;DHT22;9762;52.490;13.410;2023-02-04T00:26:03;7.50;99.90
19256;DHT22;9762;52.490;13.410;2023-02-04T00:28:29;7.60;99.90
19256;DHT22;9762;52.490;13.410;2023-02-04T00:30:54;7.60;99.90
19256;DHT22;9762;52.490;13.410;2023-02-04T00:33:20;7.60;99.90
19256;DHT22;9762;52.490;13.410;2023-02-04T00:35:46;7.60;99.90
19256;DHT22;9762;52.490;13.410;2023-02-04T00:38:11;7.60;99.90
19256;DHT22;9762;52.490;13.410;2023-02-04T00:40:37;7.50;99.90
19256;DHT22;9762;52.490;13.410;2023-02-04T00:43:03;7.50;99.90
19256;DHT22;9762;52.490;13.410;2023-02-04T00:45:28;7.50;99.90
19256;DHT22;9762;52.490;13.410;2023-02-04T00:47:54;7.50;99.90
19256;DHT22;9762;52.490;13.410;2023-02-04T00:50:19;7.40;99.90
19256;DHT22;9762;52.490;13.410;2023-02-04T00:52:45;7.30;99.90
19256;DHT22;9762;52.490;13.410;2023-02-04T00:55:11;7.30;99.90
19256;DHT22;9762;52.490;13.410;2023-02-04T00:57:38;7.20;99.90
19256;DHT22;9762;52.490;13.410;2023-02-04T01:00:05;7.20;99.90
19256;DHT22;9762;52.490;13.410;2023-02-04T01:02:31;7.00;99.90
19256;DHT22;9762;52.490;13.410;2023-02-04T01:04:56;6.90;99.90
19256;DHT22;9762;52.490;13.410;2023-02-04T01:07:22;6.90;99.90
19256;DHT22;9762;52.490;13.410;2023-02-04T01:09:48;6.90;99.90
19256;DHT22;9762;52.490;13.410;2023-02-04T01:12:14;6.90;99.90
19256;DHT22;9762;52.490;13.410;2023-02-04T01:14:39;6.90;99.90
19256;DHT22;9762;52.490;13.410;2023-02-04T01:17:05;6.90;99.90
19256;DHT22;9762;52.490;13.410;2023-02-04T01:19:31;6.80;99.90
19256;DHT22;9762;52.490;13.410;2023-02-04T01:21:57;6.80;99.90
19256;DHT22;9762;52.490;13.410;2023-02-04T01:24:22;6.80;99.90
19256;DHT22;9762;52.490;13.410;2023-02-04T01:26:48;6.80;99.90
19256;DHT22;9762;52.490;13.410;2023-02-04T01:29:13;6.90;99.90
19256;DHT22;9762;52.490;13.410;2023-02-04T01:31:39;6.90;99.90
19256;DHT22;9762;52.490;13.410;2023-02-04T01:34:05;6.90;99.80
19256;DHT22;9762;52.490;13.410;2023-02-04T01:36:31;6.90;99.60
19256;DHT22;9762;52.490;13.410;2023-02-04T01:38:57;6.90;99.70
19256;DHT22;9762;52.490;13.410;2023-02-04T01:41:25;6.90;99.70
19256;DHT22;9762;52.490;13.410;2023-02-04T01:43:51;6.90;99.60
19256;DHT22;9762;52.490;13.410;2023-02-04T01:46:17;6.90;99.70
19256;DHT22;9762;52.490;13.410;2023-02-04T01:48:42;6.90;99.60
19256;DHT22;9762;52.490;13.410;2023-02-04T01:51:11;6.80;99.80
19256;DHT22;9762;52.490;13.410;2023-02-04T01:53:38;6.70;99.90
19256;DHT22;9762;52.490;13.410;2023-02-04T01:56:15;6.70;99.90
19256;DHT22;9762;52.490;13.410;2023-02-04T01:58:42;6.70;99.90
19256;DHT22;9762;52.490;13.410;2023-02-04T02:01:14;6.70;99.90
19256;DHT22;9762;52.490;13.410;2023-02-04T02:03:41;6.80;99.90
19256;DHT22;9762;52.490;13.410;2023-02-04T02:06:08;6.80;99.90
19256;DHT22;9762;52.490;13.410;2023-02-04T02:08:37;6.90;99.80
19256;DHT22;9762;52.490;13.410;2023-02-04T02:11:03;6.90;99.40
19256;DHT22;9762;52.490;13.410;2023-02-04T02:13:29;6.90;99.10
19256;DHT22;9762;52.490;13.410;2023-02-04T02:15:55;6.90;99.20
19256;DHT22;9762;52.490;13.410;2023-02-04T02:18:21;6.90;99.10
19256;DHT22;9762;52.490;13.410;2023-02-04T02:20:47;6.90;99.00
19256;DHT22;9762;52.490;13.410;2023-02-04T02:26:00;7.00;98.90
19256;DHT22;9762;52.490;13.410;2023-02-04T02:28:25;7.00;98.80
19256;DHT22;9762;52.490;13.410;2023-02-04T02:30:51;6.90;98.80
19256;DHT22;9762;52.490;13.410;2023-02-04T02:33:18;7.00;99.00
19256;DHT22;9762;52.490;13.410;2023-02-04T02:35:45;6.90;98.60
19256;DHT22;9762;52.490;13.410;2023-02-04T02:38:13;6.90;98.70
19256;DHT22;9762;52.490;13.410;2023-02-04T02:40:39;6.90;98.80
19256;DHT22;9762;52.490;13.410;2023-02-04T02:43:05;6.90;98.70
19256;DHT22;9762;52.490;13.410;2023-02-04T02:45:33;7.00;98.80
19256;DHT22;9762;52.490;13.410;2023-02-04T02:48:00;7.00;98.70
19256;DHT22;9762;52.490;13.410;2023-02-04T02:50:30;7.10;98.50
19256;DHT22;9762;52.490;13.410;2023-02-04T02:52:56;7.10;98.50
19256;DHT22;9762;52.490;13.410;2023-02-04T02:55:27;7.10;98.40
19256;DHT22;9762;52.490;13.410;2023-02-04T02:57:54;7.10;98.30
19256;DHT22;9762;52.490;13.410;2023-02-04T03:00:26;7.10;98.30
19256;DHT22;9762;52.490;13.410;2023-02-04T03:03:08;7.20;98.30
19256;DHT22;9762;52.490;13.410;2023-02-04T03:05:40;7.20;98.10
19256;DHT22;9762;52.490;13.410;2023-02-04T03:08:06;7.20;98.10
19256;DHT22;9762;52.490;13.410;2023-02-04T03:10:33;7.20;98.00
19256;DHT22;9762;52.490;13.410;2023-02-04T03:12:59;7.20;97.90
19256;DHT22;9762;52.490;13.410;2023-02-04T03:15:25;7.20;98.00
19256;DHT22;9762;52.490;13.410;2023-02-04T03:17:51;7.20;97.90
19256;DHT22;9762;52.490;13.410;2023-02-04T03:20:22;7.20;97.90
19256;DHT22;9762;52.490;13.410;2023-02-04T03:22:49;7.10;98.00
19256;DHT22;9762;52.490;13.410;2023-02-04T03:25:15;7.10;98.00
19256;DHT22;9762;52.490;13.410;2023-02-04T03:27:40;7.00;97.90
19256;DHT22;9762;52.490;13.410;2023-02-04T03:30:07;7.10;98.00
19256;DHT22;9762;52.490;13.410;2023-02-04T03:32:33;7.00;98.30
19256;DHT22;9762;52.490;13.410;2023-02-04T03:34:59;7.00;98.10
19256;DHT22;9762;52.490;13.410;2023-02-04T03:37:24;6.90;98.10
19256;DHT22;9762;52.490;13.410;2023-02-04T03:39:50;6.90;98.30
19256;DHT22;9762;52.490;13.410;2023-02-04T03:42:16;6.80;98.30
19256;DHT22;9762;52.490;13.410;2023-02-04T03:44:42;6.80;98.30
19256;DHT22;9762;52.490;13.410;2023-02-04T03:47:08;6.80;98.40
19256;DHT22;9762;52.490;13.410;2023-02-04T03:49:33;6.80;98.40
19256;DHT22;9762;52.490;13.410;2023-02-04T03:52:01;6.80;98.30
19256;DHT22;9762;52.490;13.410;2023-02-04T03:54:27;6.90;98.40
19256;DHT22;9762;52.490;13.410;2023-02-04T03:56:52;6.90;98.30
19256;DHT22;9762;52.490;13.410;2023-02-04T03:59:18;6.90;98.20
19256;DHT22;9762;52.490;13.410;2023-02-04T04:01:43;6.90;98.30
19256;DHT22;9762;52.490;13.410;2023-02-04T04:04:09;6.90;98.00
19256;DHT22;9762;52.490;13.410;2023-02-04T04:06:35;6.80;98.10
19256;DHT22;9762;52.490;13.410;2023-02-04T04:09:00;6.80;98.30
19256;DHT22;9762;52.490;13.410;2023-02-04T04:11:26;6.90;98.30
19256;DHT22;9762;52.490;13.410;2023-02-04T04:13:51;6.90;98.30
19256;DHT22;9762;52.490;13.410;2023-02-04T04:16:17;6.90;98.30
19256;DHT22;9762;52.490;13.410;2023-02-04T04:18:45;6.90;98.30
19256;DHT22;9762;52.490;13.410;2023-02-04T04:21:10;6.90;98.20
19256;DHT22;9762;52.490;13.410;2023-02-04T04:23:36;6.90;98.20
19256;DHT22;9762;52.490;13.410;2023-02-04T04:26:01;6.80;98.30
19256;DHT22;9762;52.490;13.410;2023-02-04T04:28:27;6.90;98.40
19256;DHT22;9762;52.490;13.410;2023-02-04T04:30:53;6.90;98.30
19256;DHT22;9762;52.490;13.410;2023-02-04T04:33:18;7.00;98.40
19256;DHT22;9762;52.490;13.410;2023-02-04T04:35:44;7.00;98.40
19256;DHT22;9762;52.490;13.410;2023-02-04T04:38:10;7.00;98.10
19256;DHT22;9762;52.490;13.410;2023-02-04T04:40:35;7.00;98.20
19256;DHT22;9762;52.490;13.410;2023-02-04T04:43:01;7.10;98.30
19256;DHT22;9762;52.490;13.410;2023-02-04T04:45:27;7.10;98.30
19256;DHT22;9762;52.490;13.410;2023-02-04T04:47:53;7.10;98.10
19256;DHT22;9762;52.490;13.410;2023-02-04T04:50:19;7.10;98.00
19256;DHT22;9762;52.490;13.410;2023-02-04T04:52:45;7.10;98.00
19256;DHT22;9762;52.490;13.410;2023-02-04T04:55:10;7.10;98.00
19256;DHT22;9762;52.490;13.410;2023-02-04T04:57:36;7.20;98.00
19256;DHT22;9762;52.490;13.410;2023-02-04T05:00:03;7.10;98.00
19256;DHT22;9762;52.490;13.410;2023-02-04T05:02:29;7.20;98.00
19256;DHT22;9762;52.490;13.410;2023-02-04T05:04:54;7.20;98.00
19256;DHT22;9762;52.490;13.410;2023-02-04T05:07:20;7.20;98.00
19256;DHT22;9762;52.490;13.410;2023-02-04T05:09:46;7.20;98.00
19256;DHT22;9762;52.490;13.410;2023-02-04T05:12:11;7.10;97.90
19256;DHT22;9762;52.490;13.410;2023-02-04T05:14:37;7.10;98.00
19256;DHT22;9762;52.490;13.410;2023-02-04T05:17:02;7.30;98.10
19256;DHT22;9762;52.490;13.410;2023-02-04T05:19:28;7.10;98.10
19256;DHT22;9762;52.490;13.410;2023-02-04T05:21:54;7.10;98.00
19256;DHT22;9762;52.490;13.410;2023-02-04T05:24:19;7.10;98.00
19256;DHT22;9762;52.490;13.410;2023-02-04T05:26:45;7.10;98.00
19256;DHT22;9762;52.490;13.410;2023-02-04T05:29:10;7.00;98.40
19256;DHT22;9762;52.490;13.410;2023-02-04T05:31:36;7.00;98.00
19256;DHT22;9762;52.490;13.410;2023-02-04T05:34:02;6.90;98.00
19256;DHT22;9762;52.490;13.410;2023-02-04T05:36:27;6.90;98.20
19256;DHT22;9762;52.490;13.410;2023-02-04T05:38:53;6.90;98.30
19256;DHT22;9762;52.490;13.410;2023-02-04T05:41:19;6.90;98.30
19256;DHT22;9762;52.490;13.410;2023-02-04T05:43:44;6.90;98.30
19256;DHT22;9762;52.490;13.410;2023-02-04T05:46:10;6.90;98.30
19256;DHT22;9762;52.490;13.410;2023-02-04T05:48:35;6.90;98.20
19256;DHT22;9762;52.490;13.410;2023-02-04T05:51:01;6.90;98.20
19256;DHT22;9762;52.490;13.410;2023-02-04T05:53:27;6.90;98.40
19256;DHT22;9762;52.490;13.410;2023-02-04T05:55:52;6.90;98.30
19256;DHT22;9762;52.490;13.410;2023-02-04T05:58:18;6.90;98.30
19256;DHT22;9762;52.490;13.410;2023-02-04T06:00:43;6.80;98.30
19256;DHT22;9762;52.490;13.410;2023-02-04T06:03:09;6.80;98.30
19256;DHT22;9762;52.490;13.410;2023-02-04T06:05:35;6.70;98.40
19256;DHT22;9762;52.490;13.410;2023-02-04T06:08:00;6.60;98.60
19256;DHT22;9762;52.490;13.410;2023-02-04T06:10:26;6.60;98.70
19256;DHT22;9762;52.490;13.410;2023-02-04T06:12:51;6.60;98.80
19256;DHT22;9762;52.490;13.410;2023-02-04T06:15:17;6.60;98.80
19256;DHT22;9762;52.490;13.410;2023-02-04T06:17:43;6.60;98.90
19256;DHT22;9762;52.490;13.410;2023-02-04T06:20:10;6.60;98.80
19256;DHT22;9762;52.490;13.410;2023-02-04T06:22:37;6.60;98.70
19256;DHT22;9762;52.490;13.410;2023-02-04T06:25:03;6.60;98.70
19256;DHT22;9762;52.490;13.410;2023-02-04T06:27:29;6.70;98.70
19256;DHT22;9762;52.490;13.410;2023-02-04T06:29:54;6.70;98.70
19256;DHT22;9762;52.490;13.410;2023-02-04T06:32:21;6.60;98.70
19256;DHT22;9762;52.490;13.410;2023-02-04T06:34:47;6.60;98.70
19256;DHT22;9762;52.490;13.410;2023-02-04T06:37:13;6.60;98.70
19256;DHT22;9762;52.490;13.410;2023-02-04T06:39:40;6.60;98.70
19256;DHT22;9762;52.490;13.410;2023-02-04T06:42:05;6.60;98.60
19256;DHT22;9762;52.490;13.410;2023-02-04T06:44:31;6.70;98.60
19256;DHT22;9762;52.490;13.410;2023-02-04T06:46:56;6.60;98.50
19256;DHT22;9762;52.490;13.410;2023-02-04T06:49:22;6.60;98.60
19256;DHT22;9762;52.490;13.410;2023-02-04T06:51:49;6.60;98.60
19256;DHT22;9762;52.490;13.410;2023-02-04T06:54:15;6.60;98.60
19256;DHT22;9762;52.490;13.410;2023-02-04T06:56:41;6.60;98.70
19256;DHT22;9762;52.490;13.410;2023-02-04T06:59:08;6.60;98.70
19256;DHT22;9762;52.490;13.410;2023-02-04T07:01:34;6.60;98.60
19256;DHT22;9762;52.490;13.410;2023-02-04T07:03:59;6.60;98.60
19256;DHT22;9762;52.490;13.410;2023-02-04T07:06:25;6.60;98.70
19256;DHT22;9762;52.490;13.410;2023-02-04T07:08:50;6.50;98.70
19256;DHT22;9762;52.490;13.410;2023-02-04T07:11:16;6.40;98.80
19256;DHT22;9762;52.490;13.410;2023-02-04T07:13:41;6.40;99.00
19256;DHT22;9762;52.490;13.410;2023-02-04T07:16:07;6.40;99.20
19256;DHT22;9762;52.490;13.410;2023-02-04T07:18:33;6.30;99.60
19256;DHT22;9762;52.490;13.410;2023-02-04T07:20:58;6.40;99.60
19256;DHT22;9762;52.490;13.410;2023-02-04T07:23:24;6.40;99.40
19256;DHT22;9762;52.490;13.410;2023-02-04T07:25:51;6.50;99.30
19256;DHT22;9762;52.490;13.410;2023-02-04T07:28:24;6.50;99.20
19256;DHT22;9762;52.490;13.410;2023-02-04T07:30:49;6.50;99.20
19256;DHT22;9762;52.490;13.410;2023-02-04T07:33:15;6.50;99.20
19256;DHT22;9762;52.490;13.410;2023-02-04T07:35:40;6.60;99.20
19256;DHT22;9762;52.490;13.410;2023-02-04T07:38:06;6.60;99.10
19256;DHT22;9762;52.490;13.410;2023-02-04T07:40:32;6.60;99.00
19256;DHT22;9762;52.490;13.410;2023-02-04T07:42:58;6.70;98.90
19256;DHT22;9762;52.490;13.410;2023-02-04T07:45:24;6.60;98.80
19256;DHT22;9762;52.490;13.410;2023-02-04T07:47:49;6.60;98.80
19256;DHT22;9762;52.490;13.410;2023-02-04T07:50:15;6.60;98.80
19256;DHT22;9762;52.490;13.410;2023-02-04T07:52:41;6.60;99.00
19256;DHT22;9762;52.490;13.410;2023-02-04T07:55:07;6.60;99.10
19256;DHT22;9762;52.490;13.410;2023-02-04T07:57:34;6.60;99.10
19256;DHT22;9762;52.490;13.410;2023-02-04T07:59:59;6.60;99.10
19256;DHT22;9762;52.490;13.410;2023-02-04T08:02:25;6.60;99.10
19256;DHT22;9762;52.490;13.410;2023-02-04T08:04:51;6.60;99.20
19256;DHT22;9762;52.490;13.410;2023-02-04T08:07:16;6.60;99.10
19256;DHT22;9762;52.490;13.410;2023-02-04T08:09:42;6.50;99.00
19256;DHT22;9762;52.490;13.410;2023-02-04T08:12:08;6.50;99.20
19256;DHT22;9762;52.490;13.410;2023-02-04T08:14:33;6.60;99.20
19256;DHT22;9762;52.490;13.410;2023-02-04T08:16:59;6.60;99.10
19256;DHT22;9762;52.490;13.410;2023-02-04T08:19:25;6.70;99.10
19256;DHT22;9762;52.490;13.410;2023-02-04T08:21:50;6.70;98.90
19256;DHT22;9762;52.490;13.410;2023-02-04T08:24:19;6.80;98.90
19256;DHT22;9762;52.490;13.410;2023-02-04T08:26:45;6.80;99.10
19256;DHT22;9762;52.490;13.410;2023-02-04T08:29:11;6.90;99.60
19256;DHT22;9762;52.490;13.410;2023-02-04T08:31:37;7.00;99.20
19256;DHT22;9762;52.490;13.410;2023-02-04T08:34:04;7.00;99.30
19256;DHT22;9762;52.490;13.410;2023-02-04T08:36:30;7.00;99.10
19256;DHT22;9762;52.490;13.410;2023-02-04T08:38:57;7.10;99.10
19256;DHT22;9762;52.490;13.410;2023-02-04T08:41:22;7.10;98.90
19256;DHT22;9762;52.490;13.410;2023-02-04T08:43:48;7.20;98.80
19256;DHT22;9762;52.490;13.410;2023-02-04T08:46:13;7.30;98.70
19256;DHT22;9762;52.490;13.410;2023-02-04T08:48:39;7.30;98.60
19256;DHT22;9762;52.490;13.410;2023-02-04T08:51:05;7.30;98.40
19256;DHT22;9762;52.490;13.410;2023-02-04T08:53:30;7.40;98.60
19256;DHT22;9762;52.490;13.410;2023-02-04T08:55:56;7.40;98.30
19256;DHT22;9762;52.490;13.410;2023-02-04T08:58:21;7.40;98.20
19256;DHT22;9762;52.490;13.410;2023-02-04T09:00:47;7.40;98.10
19256;DHT22;9762;52.490;13.410;2023-02-04T09:03:13;7.50;98.10
19256;DHT22;9762;52.490;13.410;2023-02-04T09:05:38;7.50;97.80
19256;DHT22;9762;52.490;13.410;2023-02-04T09:08:04;7.50;97.80
19256;DHT22;9762;52.490;13.410;2023-02-04T09:10:30;7.50;97.60
19256;DHT22;9762;52.490;13.410;2023-02-04T09:12:56;7.60;97.70
19256;DHT22;9762;52.490;13.410;2023-02-04T09:15:22;7.60;97.80
19256;DHT22;9762;52.490;13.410;2023-02-04T09:17:49;7.70;97.60
19256;DHT22;9762;52.490;13.410;2023-02-04T09:20:15;7.70;97.40
19256;DHT22;9762;52.490;13.410;2023-02-04T09:22:41;7.70;97.20
19256;DHT22;9762;52.490;13.410;2023-02-04T09:25:07;7.70;96.70
19256;DHT22;9762;52.490;13.410;2023-02-04T09:27:33;7.60;96.90
19256;DHT22;9762;52.490;13.410;2023-02-04T09:29:58;7.60;97.00
19256;DHT22;9762;52.490;13.410;2023-02-04T09:32:24;7.60;96.60
19256;DHT22;9762;52.490;13.410;2023-02-04T09:34:50;7.70;96.90
19256;DHT22;9762;52.490;13.410;2023-02-04T09:37:15;7.70;97.10
19256;DHT22;9762;52.490;13.410;2023-02-04T09:39:41;7.80;97.00
19256;DHT22;9762;52.490;13.410;2023-02-04T09:42:11;7.90;96.80
19256;DHT22;9762;52.490;13.410;2023-02-04T09:44:38;7.90;96.60
19256;DHT22;9762;52.490;13.410;2023-02-04T09:47:04;7.90;96.20
19256;DHT22;9762;52.490;13.410;2023-02-04T09:49:31;8.00;96.20
19256;DHT22;9762;52.490;13.410;2023-02-04T09:51:56;8.00;96.40
19256;DHT22;9762;52.490;13.410;2023-02-04T09:54:23;8.00;96.20
19256;DHT22;9762;52.490;13.410;2023-02-04T09:56:50;8.10;96.00
19256;DHT22;9762;52.490;13.410;2023-02-04T09:59:25;8.10;95.80
19256;DHT22;9762;52.490;13.410;2023-02-04T10:01:59;8.10;95.90
19256;DHT22;9762;52.490;13.410;2023-02-04T10:04:25;8.20;95.80
19256;DHT22;9762;52.490;13.410;2023-02-04T10:06:51;8.30;95.70
19256;DHT22;9762;52.490;13.410;2023-02-04T10:09:17;8.40;95.20
19256;DHT22;9762;52.490;13.410;2023-02-04T10:11:45;8.40;95.20
19256;DHT22;9762;52.490;13.410;2023-02-04T10:14:20;8.50;95.30
19256;DHT22;9762;52.490;13.410;2023-02-04T10:16:55;8.50;95.20
19256;DHT22;9762;52.490;13.410;2023-02-04T10:19:21;8.60;95.50
19256;DHT22;9762;52.490;13.410;2023-02-04T10:21:47;8.70;95.40
19256;DHT22;9762;52.490;13.410;2023-02-04T10:24:15;8.80;95.10
19256;DHT22;9762;52.490;13.410;2023-02-04T10:26:41;8.90;94.70
19256;DHT22;9762;52.490;13.410;2023-02-04T10:29:16;8.90;94.60
19256;DHT22;9762;52.490;13.410;2023-02-04T10:31:49;9.00;94.90
19256;DHT22;9762;52.490;13.410;2023-02-04T10:34:31;9.10;94.40
19256;DHT22;9762;52.490;13.410;2023-02-04T10:36:57;9.10;93.80
19256;DHT22;9762;52.490;13.410;2023-02-04T10:39:25;9.20;93.40
19256;DHT22;9762;52.490;13.410;2023-02-04T10:42:00;9.20;93.00
19256;DHT22;9762;52.490;13.410;2023-02-04T10:44:30;9.20;92.40
19256;DHT22;9762;52.490;13.410;2023-02-04T10:47:12;9.10;92.30
19256;DHT22;9762;52.490;13.410;2023-02-04T10:49:39;9.20;91.70
19256;DHT22;9762;52.490;13.410;2023-02-04T10:52:15;9.10;91.70
19256;DHT22;9762;52.490;13.410;2023-02-04T10:54:41;9.20;91.00
19256;DHT22;9762;52.490;13.410;2023-02-04T10:57:23;9.20;91.10
19256;DHT22;9762;52.490;13.410;2023-02-04T10:59:51;9.20;90.50
19256;DHT22;9762;52.490;13.410;2023-02-04T11:04:52;9.20;90.10
19256;DHT22;9762;52.490;13.410;2023-02-04T11:07:18;9.20;90.30
19256;DHT22;9762;52.490;13.410;2023-02-04T11:09:45;9.20;90.50
19256;DHT22;9762;52.490;13.410;2023-02-04T11:12:20;9.30;90.90
19256;DHT22;9762;52.490;13.410;2023-02-04T11:14:56;9.40;90.10
19256;DHT22;9762;52.490;13.410;2023-02-04T11:17:29;9.50;90.20
19256;DHT22;9762;52.490;13.410;2023-02-04T11:19:56;9.50;89.10
19256;DHT22;9762;52.490;13.410;2023-02-04T11:22:42;9.50;87.80
19256;DHT22;9762;52.490;13.410;2023-02-04T11:25:35;9.50;88.10
19256;DHT22;9762;52.490;13.410;2023-02-04T11:28:24;9.50;87.90
19256;DHT22;9762;52.490;13.410;2023-02-04T11:31:00;9.60;87.90
19256;DHT22;9762;52.490;13.410;2023-02-04T11:33:37;9.70;87.50
19256;DHT22;9762;52.490;13.410;2023-02-04T11:36:07;9.70;86.80
19256;DHT22;9762;52.490;13.410;2023-02-04T11:38:34;9.80;86.90
19256;DHT22;9762;52.490;13.410;2023-02-04T11:41:00;9.80;87.20
19256;DHT22;9762;52.490;13.410;2023-02-04T11:43:26;9.90;86.60
19256;DHT22;9762;52.490;13.410;2023-02-04T11:46:10;10.00;86.60
19256;DHT22;9762;52.490;13.410;2023-02-04T11:48:37;10.10;86.90
19256;DHT22;9762;52.490;13.410;2023-02-04T11:51:13;10.20;86.70
19256;DHT22;9762;52.490;13.410;2023-02-04T11:53:39;10.20;84.20
19256;DHT22;9762;52.490;13.410;2023-02-04T11:56:05;10.30;84.70
19256;DHT22;9762;52.490;13.410;2023-02-04T11:58:31;10.30;82.60
19256;DHT22;9762;52.490;13.410;2023-02-04T12:00:58;10.20;82.90
19256;DHT22;9762;52.490;13.410;2023-02-04T12:03:26;10.20;83.50
19256;DHT22;9762;52.490;13.410;2023-02-04T12:05:55;10.20;82.00
19256;DHT22;9762;52.490;13.410;2023-02-04T12:10:48;9.90;81.70
19256;DHT22;9762;52.490;13.410;2023-02-04T12:13:18;9.80;81.50
19256;DHT22;9762;52.490;13.410;2023-02-04T12:15:53;9.70;82.50
19256;DHT22;9762;52.490;13.410;2023-02-04T12:18:19;9.70;81.50
19256;DHT22;9762;52.490;13.410;2023-02-04T12:20:45;9.70;82.40
19256;DHT22;9762;52.490;13.410;2023-02-04T12:23:11;9.70;82.40
19256;DHT22;9762;52.490;13.410;2023-02-04T12:25:36;9.80;82.00
19256;DHT22;9762;52.490;13.410;2023-02-04T12:28:02;9.80;81.80
19256;DHT22;9762;52.490;13.410;2023-02-04T12:30:28;9.80;81.70
19256;DHT22;9762;52.490;13.410;2023-02-04T12:32:53;9.90;82.10
19256;DHT22;9762;52.490;13.410;2023-02-04T12:35:19;9.90;82.00
19256;DHT22;9762;52.490;13.410;2023-02-04T12:37:45;10.00;81.00
19256;DHT22;9762;52.490;13.410;2023-02-04T12:40:15;10.00;80.20
19256;DHT22;9762;52.490;13.410;2023-02-04T12:42:42;10.00;77.50
19256;DHT22;9762;52.490;13.410;2023-02-04T12:45:09;9.90;77.40
19256;DHT22;9762;52.490;13.410;2023-02-04T12:47:34;9.90;77.30
19256;DHT22;9762;52.490;13.410;2023-02-04T12:50:00;9.90;78.30
19256;DHT22;9762;52.490;13.410;2023-02-04T12:52:26;9.90;78.60
19256;DHT22;9762;52.490;13.410;2023-02-04T12:54:51;9.90;79.60
19256;DHT22;9762;52.490;13.410;2023-02-04T12:57:17;9.90;80.50
19256;DHT22;9762;52.490;13.410;2023-02-04T12:59:47;9.90;81.50
19256;DHT22;9762;52.490;13.410;2023-02-04T13:02:14;9.90;81.40
19256;DHT22;9762;52.490;13.410;2023-02-04T13:04:40;9.80;79.80
19256;DHT22;9762;52.490;13.410;2023-02-04T13:07:06;9.80;80.30
19256;DHT22;9762;52.490;13.410;2023-02-04T13:09:33;9.60;79.40
19256;DHT22;9762;52.490;13.410;2023-02-04T13:11:59;9.60;80.00
19256;DHT22;9762;52.490;13.410;2023-02-04T13:14:24;9.50;79.30
19256;DHT22;9762;52.490;13.410;2023-02-04T13:16:50;9.40;79.60
19256;DHT22;9762;52.490;13.410;2023-02-04T13:19:15;9.40;79.50
19256;DHT22;9762;52.490;13.410;2023-02-04T13:21:41;9.30;78.30
19256;DHT22;9762;52.490;13.410;2023-02-04T13:24:07;9.30;78.90
19256;DHT22;9762;52.490;13.410;2023-02-04T13:26:33;9.30;79.10
19256;DHT22;9762;52.490;13.410;2023-02-04T13:28:58;9.30;79.70
19256;DHT22;9762;52.490;13.410;2023-02-04T13:31:24;9.40;80.30
19256;DHT22;9762;52.490;13.410;2023-02-04T13:33:49;9.40;80.40
19256;DHT22;9762;52.490;13.410;2023-02-04T13:36:15;9.50;79.80
19256;DHT22;9762;52.490;13.410;2023-02-04T13:38:41;9.50;80.00
19256;DHT22;9762;52.490;13.410;2023-02-04T13:41:06;9.50;78.80
19256;DHT22;9762;52.490;13.410;2023-02-04T13:43:32;9.50;78.70
19256;DHT22;9762;52.490;13.410;2023-02-04T13:45:57;9.40;77.70
19256;DHT22;9762;52.490;13.410;2023-02-04T13:48:23;9.40;78.20
19256;DHT22;9762;52.490;13.410;2023-02-04T13:50:49;9.30;76.00
19256;DHT22;9762;52.490;13.410;2023-02-04T13:53:17;9.30;76.60
19256;DHT22;9762;52.490;13.410;2023-02-04T13:55:43;9.30;77.60
19256;DHT22;9762;52.490;13.410;2023-02-04T13:58:09;9.30;76.20
19256;DHT22;9762;52.490;13.410;2023-02-04T14:00:34;9.20;76.00
19256;DHT22;9762;52.490;13.410;2023-02-04T14:03:00;9.30;75.80
19256;DHT22;9762;52.490;13.410;2023-02-04T14:05:25;9.30;76.40
19256;DHT22;9762;52.490;13.410;2023-02-04T14:07:51;9.30;76.60
19256;DHT22;9762;52.490;13.410;2023-02-04T14:10:17;9.30;75.00
19256;DHT22;9762;52.490;13.410;2023-02-04T14:12:43;9.30;76.50
19256;DHT22;9762;52.490;13.410;2023-02-04T14:15:09;9.30;76.00
19256;DHT22;9762;52.490;13.410;2023-02-04T14:17:35;9.30;76.60
19256;DHT22;9762;52.490;13.410;2023-02-04T14:20:01;9.30;76.70
19256;DHT22;9762;52.490;13.410;2023-02-04T14:22:30;9.40;76.80
19256;DHT22;9762;52.490;13.410;2023-02-04T14:24:55;9.50;77.90
19256;DHT22;9762;52.490;13.410;2023-02-04T14:27:22;9.50;77.20
19256;DHT22;9762;52.490;13.410;2023-02-04T14:29:47;9.60;77.10
19256;DHT22;9762;52.490;13.410;2023-02-04T14:32:13;9.50;75.40
19256;DHT22;9762;52.490;13.410;2023-02-04T14:34:38;9.60;75.70
19256;DHT22;9762;52.490;13.410;2023-02-04T14:37:04;9.60;76.10
19256;DHT22;9762;52.490;13.410;2023-02-04T14:39:30;9.60;75.80
19256;DHT22;9762;52.490;13.410;2023-02-04T14:41:55;9.60;73.60
19256;DHT22;9762;52.490;13.410;2023-02-04T14:44:21;9.60;73.80
19256;DHT22;9762;52.490;13.410;2023-02-04T14:46:47;9.50;73.40
19256;DHT22;9762;52.490;13.410;2023-02-04T14:49:14;9.40;73.60
19256;DHT22;9762;52.490;13.410;2023-02-04T14:51:40;9.40;75.10
19256;DHT22;9762;52.490;13.410;2023-02-04T14:54:06;9.30;74.90
19256;DHT22;9762;52.490;13.410;2023-02-04T14:56:31;9.20;74.80
19256;DHT22;9762;52.490;13.410;2023-02-04T14:58:57;9.20;75.80
19256;DHT22;9762;52.490;13.410;2023-02-04T15:01:23;9.20;75.70
19256;DHT22;9762;52.490;13.410;2023-02-04T15:03:49;9.20;75.90
19256;DHT22;9762;52.490;13.410;2023-02-04T15:06:15;9.20;76.50
19256;DHT22;9762;52.490;13.410;2023-02-04T15:08:41;9.20;76.10
19256;DHT22;9762;52.490;13.410;2023-02-04T15:11:09;9.20;75.40
19256;DHT22;9762;52.490;13.410;2023-02-04T15:13:35;9.20;75.90
19256;DHT22;9762;52.490;13.410;2023-02-04T15:16:00;9.20;75.10
19256;DHT22;9762;52.490;13.410;2023-02-04T15:18:26;9.20;75.00
19256;DHT22;9762;52.490;13.410;2023-02-04T15:20:52;9.10;74.40
19256;DHT22;9762;52.490;13.410;2023-02-04T15:23:17;9.10;74.10
19256;DHT22;9762;52.490;13.410;2023-02-04T15:25:43;9.00;74.70
19256;DHT22;9762;52.490;13.410;2023-02-04T15:28:09;9.00;74.30
19256;DHT22;9762;52.490;13.410;2023-02-04T15:30:35;8.80;74.40
19256;DHT22;9762;52.490;13.410;2023-02-04T15:33:01;8.70;75.10
19256;DHT22;9762;52.490;13.410;2023-02-04T15:35:26;8.70;75.30
19256;DHT22;9762;52.490;13.410;2023-02-04T15:37:52;8.70;75.40
19256;DHT22;9762;52.490;13.410;2023-02-04T15:40:18;8.70;74.90
19256;DHT22;9762;52.490;13.410;2023-02-04T15:42:43;8.70;74.60
19256;DHT22;9762;52.490;13.410;2023-02-04T15:45:09;8.70;74.70
19256;DHT22;9762;52.490;13.410;2023-02-04T15:47:35;8.70;74.40
19256;DHT22;9762;52.490;13.410;2023-02-04T15:50:00;8.60;73.40